createdAt,value
2018-10-16T00:00:25.584Z,67.4
2018-10-16T00:19:21.757Z,66.4
2018-10-16T00:20:21.669Z,67
2018-10-16T00:21:21.576Z,67.3
2018-10-16T00:22:21.546Z,67.5
2018-10-16T00:23:21.445Z,67.6
2018-10-16T00:24:21.368Z,67.7
2018-10-16T00:25:21.294Z,67.8
2018-10-16T00:26:21.195Z,68.7
2018-10-16T00:27:21.105Z,68
2018-10-16T00:28:21.006Z,68.1
2018-10-16T00:29:21.373Z,68.1
2018-10-16T00:30:21.277Z,68.1
2018-10-16T00:31:21.188Z,68.2
2018-10-16T00:32:21.103Z,68.1
2018-10-16T00:33:21.025Z,68.1
2018-10-16T00:34:20.950Z,68.1
2018-10-16T00:35:20.867Z,68.2
2018-10-16T00:36:20.785Z,68.3
2018-10-16T00:37:20.705Z,68.3
2018-10-16T00:38:20.628Z,68.3
2018-10-16T00:39:20.973Z,69.2
2018-10-16T00:40:20.896Z,68.6
2018-10-16T00:41:20.801Z,68.6
2018-10-16T00:42:20.722Z,68.5
2018-10-16T00:43:20.639Z,68.6
2018-10-16T00:44:20.542Z,68.5
2018-10-16T00:45:20.483Z,68.5
2018-10-16T00:46:20.634Z,68.8
2018-10-16T00:47:20.599Z,68.9
2018-10-16T00:48:20.493Z,68.8
2018-10-16T00:49:20.821Z,69.1
2018-10-16T00:50:20.733Z,69.3
2018-10-16T00:51:20.646Z,69.2
2018-10-16T00:52:20.551Z,69.2
2018-10-16T00:53:20.458Z,69.2
2018-10-16T00:54:20.372Z,69.1
2018-10-16T00:55:20.265Z,69.2
2018-10-16T00:56:20.191Z,69.3
2018-10-16T00:57:20.111Z,69.4
2018-10-16T00:58:20.009Z,69.4
2018-10-16T00:59:20.355Z,69.5
2018-10-16T01:00:20.273Z,69.6
2018-10-16T01:01:20.202Z,69.8
2018-10-16T01:02:20.118Z,69.7
2018-10-16T01:03:20.020Z,69.8
2018-10-16T01:04:19.923Z,69.7
2018-10-16T01:05:19.828Z,70
2018-10-16T01:06:19.728Z,70
2018-10-16T01:07:19.644Z,70.1
2018-10-16T01:08:19.566Z,70.4
2018-10-16T01:09:19.914Z,69.7
2018-10-16T01:10:19.816Z,70.2
2018-10-16T01:11:19.725Z,70.2
2018-10-16T01:12:19.655Z,70.2
2018-10-16T01:13:19.606Z,70.1
2018-10-16T01:14:19.519Z,70
2018-10-16T01:15:19.425Z,69.8
2018-10-16T01:16:19.344Z,70
2018-10-16T01:17:19.259Z,70.1
2018-10-16T01:18:19.190Z,70.1
2018-10-16T01:19:19.563Z,70.2
2018-10-16T01:20:19.510Z,70.3
2018-10-16T01:21:19.430Z,70.4
2018-10-16T01:22:19.350Z,70.3
2018-10-16T01:23:19.265Z,70.5
2018-10-16T01:24:19.173Z,70.4
2018-10-16T01:25:19.068Z,70.4
2018-10-16T01:26:18.969Z,70.3
2018-10-16T01:27:18.881Z,70.2
2018-10-16T01:28:18.800Z,70
2018-10-16T01:29:19.152Z,69.8
2018-10-16T01:49:15.151Z,67
2018-10-16T01:50:15.063Z,67.8
2018-10-16T01:51:14.976Z,68.1
2018-10-16T01:52:14.886Z,68.3
2018-10-16T01:53:14.800Z,68.6
2018-10-16T01:54:14.698Z,68.8
2018-10-16T01:55:14.615Z,68.9
2018-10-16T01:56:14.519Z,68.7
2018-10-16T01:57:14.424Z,68.9
2018-10-16T01:58:14.349Z,69
2018-10-16T01:59:14.706Z,69.1
2018-10-16T02:00:14.630Z,69
2018-10-16T02:09:12.920Z,68
2018-10-16T02:10:12.864Z,68.7
2018-10-16T02:11:12.773Z,68.8
2018-10-16T02:12:12.687Z,69
2018-10-16T02:13:12.610Z,69.3
2018-10-16T02:14:12.505Z,69
2018-10-16T02:15:12.423Z,69
2018-10-16T02:16:12.352Z,69.9
2018-10-16T02:17:12.268Z,69.2
2018-10-16T02:18:12.181Z,69.4
2018-10-16T02:19:12.512Z,69.4
2018-10-16T02:20:12.436Z,69.7
2018-10-16T02:21:12.348Z,69.9
2018-10-16T02:22:12.284Z,70
2018-10-16T02:23:12.184Z,70
2018-10-16T02:24:12.089Z,70
2018-10-16T02:25:12.008Z,70.2
2018-10-16T02:26:11.911Z,70.2
2018-10-16T02:27:11.840Z,70.3
2018-10-16T02:28:11.795Z,70.3
2018-10-16T02:29:12.130Z,70.3
2018-10-16T02:30:12.057Z,70.6
2018-10-16T02:31:11.976Z,70.6
2018-10-16T02:32:11.892Z,70.7
2018-10-16T02:33:11.812Z,70.9
2018-10-16T02:34:11.733Z,71.2
2018-10-16T02:35:11.644Z,71.3
2018-10-16T02:36:11.550Z,71.3
2018-10-16T02:37:11.460Z,71.5
2018-10-16T02:38:11.395Z,71.8
2018-10-16T02:39:11.748Z,71.6
2018-10-16T02:40:11.684Z,71.8
2018-10-16T02:41:11.616Z,71.6
2018-10-16T02:42:11.528Z,71.6
2018-10-16T02:43:11.454Z,71.9
2018-10-16T02:44:11.357Z,72
2018-10-16T02:45:11.280Z,72
2018-10-16T02:46:11.204Z,72
2018-10-16T02:47:11.122Z,72.2
2018-10-16T02:48:11.068Z,72.2
2018-10-16T02:49:11.453Z,72.2
2018-10-16T02:50:11.376Z,72.3
2018-10-16T02:51:11.296Z,72.2
2018-10-16T02:52:11.210Z,72.2
2018-10-16T02:53:11.163Z,72.4
2018-10-16T02:54:11.101Z,72.4
2018-10-16T02:55:11.004Z,72.5
2018-10-16T02:56:10.943Z,72.3
2018-10-16T02:57:10.839Z,72.5
2018-10-16T02:58:10.749Z,72.5
2018-10-16T02:59:11.131Z,72.7
2018-10-16T03:00:11.042Z,72.9
2018-10-16T03:01:10.976Z,73
2018-10-16T03:02:10.899Z,73.3
2018-10-16T03:03:10.812Z,73.3
2018-10-16T03:04:10.744Z,73.3
2018-10-16T03:05:10.651Z,73.2
2018-10-16T03:06:10.579Z,73.3
2018-10-16T03:07:10.523Z,73.1
2018-10-16T03:08:10.417Z,73.2
2018-10-16T03:09:10.766Z,73.4
2018-10-16T03:10:10.679Z,73.7
2018-10-16T03:11:10.581Z,73.4
2018-10-16T03:12:10.553Z,73.5
2018-10-16T03:13:10.447Z,73.6
2018-10-16T03:14:10.378Z,73.4
2018-10-16T03:15:10.302Z,73.7
2018-10-16T03:16:10.216Z,73.6
2018-10-16T03:17:10.132Z,73.7
2018-10-16T03:18:10.056Z,73.7
2018-10-16T03:19:10.416Z,73.7
2018-10-16T03:20:10.365Z,74.5
2018-10-16T03:21:10.293Z,74
2018-10-16T03:22:10.209Z,73.9
2018-10-16T03:23:10.107Z,74
2018-10-16T03:24:10.024Z,74
2018-10-16T03:25:09.945Z,74.1
2018-10-16T03:26:09.856Z,74.1
2018-10-16T03:27:09.772Z,74.1
2018-10-16T03:28:09.697Z,74.3
2018-10-16T03:29:10.035Z,74.2
2018-10-16T03:30:09.945Z,74.2
2018-10-16T03:31:11.144Z,74.2
2018-10-16T03:32:11.064Z,74.4
2018-10-16T03:33:10.994Z,74.4
2018-10-16T03:34:10.904Z,74.4
2018-10-16T03:35:10.819Z,74.7
2018-10-16T03:36:10.734Z,74.6
2018-10-16T03:37:10.648Z,74.6
2018-10-16T03:38:10.572Z,74.7
2018-10-16T03:39:10.918Z,74.9
2018-10-16T03:40:10.851Z,74.8
2018-10-16T03:41:10.762Z,75
2018-10-16T03:42:10.665Z,75
2018-10-16T03:43:10.570Z,75
2018-10-16T03:44:10.529Z,75
2018-10-16T03:45:10.452Z,75.1
2018-10-16T03:46:10.384Z,75.1
2018-10-16T03:47:10.297Z,75.1
2018-10-16T03:48:10.203Z,75.1
2018-10-16T03:49:10.553Z,75.1
2018-10-16T03:50:10.464Z,75.2
2018-10-16T03:51:10.384Z,75.1
2018-10-16T03:52:10.308Z,75.2
2018-10-16T03:53:10.207Z,75.2
2018-10-16T03:54:10.129Z,75.2
2018-10-16T03:55:10.099Z,75.3
2018-10-16T03:56:10.044Z,75.4
2018-10-16T03:57:10.161Z,75.6
2018-10-16T03:58:10.163Z,75.6
2018-10-16T03:59:10.527Z,75.6
2018-10-16T04:19:07.167Z,73.7
2018-10-16T04:20:07.076Z,74.3
2018-10-16T04:21:07.002Z,74.4
2018-10-16T04:22:06.907Z,74.6
2018-10-16T04:23:06.856Z,74.7
2018-10-16T04:24:06.757Z,75
2018-10-16T04:25:06.664Z,75
2018-10-16T04:26:06.606Z,75.3
2018-10-16T04:27:06.508Z,75.3
2018-10-16T04:28:06.421Z,75.5
2018-10-16T04:29:07.112Z,75.5
2018-10-16T04:30:07.372Z,75.6
2018-10-16T04:31:07.289Z,75.7
2018-10-16T04:32:07.219Z,75.8
2018-10-16T04:33:07.140Z,76
2018-10-16T04:34:07.062Z,76.1
2018-10-16T04:35:06.971Z,76.2
2018-10-16T04:36:06.887Z,76
2018-10-16T04:37:06.796Z,76.2
2018-10-16T04:38:06.710Z,76.3
2018-10-16T04:39:07.092Z,76.4
2018-10-16T04:49:05.118Z,74.9
2018-10-16T04:50:05.046Z,75.4
2018-10-16T04:51:04.977Z,75.5
2018-10-16T04:52:04.878Z,75.7
2018-10-16T04:53:04.792Z,75.6
2018-10-16T04:54:04.747Z,75.8
2018-10-16T04:55:04.912Z,75.9
2018-10-16T04:56:05.067Z,75.9
2018-10-16T04:57:04.975Z,76.1
2018-10-16T04:58:04.891Z,76.2
2018-10-16T04:59:05.267Z,76.4
2018-10-16T05:00:05.178Z,76.5
2018-10-16T05:01:05.119Z,76.6
2018-10-16T05:02:05.035Z,76.6
2018-10-16T05:03:04.953Z,76.7
2018-10-16T05:04:05.242Z,76.8
2018-10-16T05:05:05.409Z,76.8
2018-10-16T05:06:05.336Z,77.1
2018-10-16T05:07:05.260Z,77.1
2018-10-16T05:08:05.168Z,77.2
2018-10-16T05:09:05.707Z,77.3
2018-10-16T05:10:05.612Z,77.4
2018-10-16T05:11:05.539Z,77.4
2018-10-16T05:12:05.452Z,77.7
2018-10-16T05:13:05.713Z,77.7
2018-10-16T05:14:05.885Z,77.6
2018-10-16T05:15:05.791Z,77.8
2018-10-16T05:16:05.715Z,78.1
2018-10-16T05:17:05.676Z,78.1
2018-10-16T05:18:05.619Z,78.1
2018-10-16T05:19:06.320Z,78.2
2018-10-16T05:20:06.500Z,78.4
2018-10-16T05:21:06.470Z,78.5
2018-10-16T05:22:06.380Z,78.6
2018-10-16T05:23:06.292Z,78.7
2018-10-16T05:24:06.193Z,78.7
2018-10-16T05:25:06.099Z,78.8
2018-10-16T05:26:06.048Z,78.8
2018-10-16T05:27:06.034Z,78.9
2018-10-16T05:28:05.950Z,78.8
2018-10-16T05:29:06.290Z,78.7
2018-10-16T05:30:06.195Z,78.7
2018-10-16T05:31:06.648Z,79
2018-10-16T05:32:06.911Z,79.2
2018-10-16T05:33:06.809Z,78.9
2018-10-16T05:34:06.760Z,79
2018-10-16T05:35:06.669Z,79
2018-10-16T05:36:06.579Z,79.2
2018-10-16T05:37:06.486Z,79.3
2018-10-16T05:38:06.406Z,79.1
2018-10-16T05:39:07.002Z,79.4
2018-10-16T05:40:07.000Z,79.4
2018-10-16T05:41:06.905Z,79.6
2018-10-16T05:42:06.805Z,79.3
2018-10-16T05:43:06.728Z,79.3
2018-10-16T05:44:06.634Z,79.4
2018-10-16T05:45:06.541Z,79.4
2018-10-16T05:46:06.446Z,79.6
2018-10-16T05:47:06.352Z,79.5
2018-10-16T05:48:06.299Z,79.5
2018-10-16T05:49:06.651Z,79.5
2018-10-16T05:50:06.567Z,79.5
2018-10-16T05:51:06.490Z,79.5
2018-10-16T05:52:06.398Z,79.5
2018-10-16T05:53:06.347Z,79.7
2018-10-16T05:54:06.278Z,79.7
2018-10-16T05:55:06.227Z,79.6
2018-10-16T05:56:06.132Z,80
2018-10-16T05:57:06.050Z,79.7
2018-10-16T05:58:05.994Z,79.7
2018-10-16T05:59:06.343Z,79.6
2018-10-16T06:00:06.292Z,79.9
2018-10-16T06:01:06.207Z,79.6
2018-10-16T06:02:06.154Z,79.6
2018-10-16T06:03:06.113Z,79.8
2018-10-16T06:04:06.105Z,79.8
2018-10-16T06:05:06.003Z,79.9
2018-10-16T06:06:05.910Z,79.8
2018-10-16T06:07:05.823Z,80
2018-10-16T06:08:05.733Z,79.7
2018-10-16T06:09:06.075Z,80
2018-10-16T06:10:05.988Z,80.2
2018-10-16T06:11:05.897Z,80.3
2018-10-16T06:12:05.933Z,80
2018-10-16T06:13:05.976Z,80.5
2018-10-16T06:14:05.924Z,80.3
2018-10-16T06:15:05.821Z,80.5
2018-10-16T06:16:06.243Z,80.4
2018-10-16T06:17:06.694Z,80.4
2018-10-16T06:18:06.603Z,80.5
2018-10-16T06:19:06.999Z,80.4
2018-10-16T06:29:05.049Z,79
2018-10-16T06:30:05.189Z,79.5
2018-10-16T06:31:05.182Z,79.9
2018-10-16T06:32:05.101Z,79.9
2018-10-16T06:33:05.203Z,80.3
2018-10-16T06:34:05.243Z,80.2
2018-10-16T06:35:05.152Z,80.3
2018-10-16T06:36:05.069Z,80.4
2018-10-16T06:37:04.971Z,80.5
2018-10-16T06:38:04.882Z,80.6
2018-10-16T06:39:05.237Z,80.7
2018-10-16T06:40:05.169Z,80.5
2018-10-16T06:41:06.438Z,80.7
2018-10-16T06:42:06.987Z,80.5
2018-10-16T06:43:06.914Z,80.4
2018-10-16T06:44:06.819Z,80.4
2018-10-16T06:45:06.767Z,80.7
2018-10-16T06:46:06.780Z,80.6
2018-10-16T06:47:06.900Z,80.9
2018-10-16T06:48:07.932Z,81
2018-10-16T06:49:11.803Z,81
2018-10-16T06:50:11.723Z,81.1
2018-10-16T06:51:11.673Z,81.1
2018-10-16T06:52:11.596Z,81
2018-10-16T06:53:11.829Z,80.8
2018-10-16T06:54:12.031Z,80.8
2018-10-16T06:55:12.468Z,80.7
2018-10-16T06:56:12.759Z,80.8
2018-10-16T06:57:12.679Z,81
2018-10-16T06:58:12.598Z,80.9
2018-10-16T06:59:12.944Z,81
2018-10-16T07:00:13.289Z,80.8
2018-10-16T07:01:13.499Z,81
2018-10-16T07:02:13.405Z,80.9
2018-10-16T07:03:13.306Z,80.9
2018-10-16T07:04:13.268Z,80.8
2018-10-16T07:05:13.170Z,80.9
2018-10-16T07:06:13.088Z,81
2018-10-16T07:07:13.648Z,81
2018-10-16T07:08:14.082Z,80.8
2018-10-16T07:09:14.438Z,80.7
2018-10-16T07:10:14.351Z,80.9
2018-10-16T07:11:14.264Z,80.7
2018-10-16T07:12:14.203Z,80.9
2018-10-16T07:13:14.132Z,81
2018-10-16T07:14:14.038Z,81.2
2018-10-16T07:15:13.943Z,81.1
2018-10-16T07:16:13.854Z,80.8
2018-10-16T07:17:13.760Z,80.9
2018-10-16T07:18:13.682Z,80.9
2018-10-16T07:19:14.028Z,81
2018-10-16T07:20:13.944Z,80.7
2018-10-16T07:21:14.204Z,80.6
2018-10-16T07:22:14.458Z,80.5
2018-10-16T07:23:14.591Z,80.4
2018-10-16T07:24:14.561Z,80.2
2018-10-16T07:25:14.464Z,80.6
2018-10-16T07:26:14.383Z,80.6
2018-10-16T07:27:14.317Z,80.5
2018-10-16T07:28:14.236Z,80.1
2018-10-16T07:29:14.609Z,80
2018-10-16T07:30:15.146Z,80.2
2018-10-16T07:31:15.536Z,80.9
2018-10-16T07:32:15.473Z,80.5
2018-10-16T07:33:15.397Z,80.5
2018-10-16T07:34:15.307Z,80.6
2018-10-16T07:35:15.221Z,80.4
2018-10-16T07:36:15.141Z,79.8
2018-10-16T07:37:15.082Z,79.7
2018-10-16T07:38:15.963Z,79.7
2018-10-16T07:39:17.298Z,79.5
2018-10-16T07:40:17.222Z,79.7
2018-10-16T07:41:17.150Z,79.6
2018-10-16T07:42:17.105Z,79.5
2018-10-16T07:43:17.050Z,80.1
2018-10-16T07:44:17.022Z,79.7
2018-10-16T07:45:16.933Z,79.4
2018-10-16T07:46:16.867Z,79.7
2018-10-16T07:47:16.763Z,78.9
2018-10-16T07:48:16.957Z,79.1
2018-10-16T07:49:17.541Z,79.4
2018-10-16T07:50:17.458Z,79.2
2018-10-16T07:51:17.384Z,78.6
2018-10-16T07:52:17.353Z,79
2018-10-16T07:53:17.335Z,78.7
2018-10-16T07:54:17.248Z,78.3
2018-10-16T07:55:17.158Z,77.8
2018-10-16T07:56:17.100Z,78.3
2018-10-16T07:57:17.605Z,78.6
2018-10-16T07:58:17.945Z,79.3
2018-10-16T07:59:18.328Z,78.2
2018-10-16T08:00:18.233Z,77.1
2018-10-16T08:01:18.131Z,77.3
2018-10-16T08:02:18.041Z,77.4
2018-10-16T08:03:17.968Z,77.9
2018-10-16T08:04:17.900Z,77.7
2018-10-16T08:05:17.809Z,76.6
2018-10-16T08:06:17.734Z,75.5
2018-10-16T08:07:17.647Z,76.1
2018-10-16T08:08:17.566Z,76.2
2018-10-16T08:09:17.923Z,76.6
2018-10-16T08:10:17.832Z,75.9
2018-10-16T08:11:18.129Z,76
2018-10-16T08:12:18.270Z,75.8
2018-10-16T08:13:18.221Z,76
2018-10-16T08:14:18.146Z,74.9
2018-10-16T08:15:18.074Z,75.1
2018-10-16T08:16:17.984Z,75.6
2018-10-16T08:17:18.343Z,75.9
2018-10-16T08:18:18.530Z,75.8
2018-10-16T08:19:18.897Z,75.6
2018-10-16T08:20:18.852Z,74.7
2018-10-16T08:21:18.762Z,74.6
2018-10-16T08:29:17.423Z,72.6
2018-10-16T08:30:17.441Z,73.4
2018-10-16T08:31:17.411Z,73.4
2018-10-16T08:32:17.331Z,73.6
2018-10-16T08:33:17.275Z,72.9
2018-10-16T08:34:17.811Z,74.1
2018-10-16T08:35:18.166Z,74.5
2018-10-16T08:36:18.875Z,73.8
2018-10-16T08:37:20.072Z,73.6
2018-10-16T08:38:20.264Z,73
2018-10-16T08:39:20.669Z,73.4
2018-10-16T08:40:20.620Z,73.5
2018-10-16T08:41:20.521Z,73.1
2018-10-16T08:42:20.459Z,73.5
2018-10-16T08:43:20.370Z,73.1
2018-10-16T08:44:20.282Z,73.5
2018-10-16T08:45:20.228Z,73.6
2018-10-16T08:46:20.167Z,73
2018-10-16T08:47:20.355Z,73.7
2018-10-16T08:48:20.428Z,74.3
2018-10-16T08:49:20.779Z,72.6
2018-10-16T08:50:20.688Z,72.5
2018-10-16T08:51:20.624Z,71.2
2018-10-16T08:59:19.209Z,70.5
2018-10-16T09:00:19.122Z,71.7
2018-10-16T09:01:19.034Z,71.9
2018-10-16T09:02:18.996Z,72.2
2018-10-16T09:03:18.913Z,72.4
2018-10-16T09:04:18.828Z,72.7
2018-10-16T09:05:18.736Z,73.4
2018-10-16T09:06:18.639Z,72.2
2018-10-16T09:07:18.577Z,72.1
2018-10-16T09:08:18.489Z,72.4
2018-10-16T09:09:18.850Z,71.5
2018-10-16T09:10:18.758Z,70.7
2018-10-16T09:11:18.662Z,71.2
2018-10-16T09:12:18.570Z,72
2018-10-16T09:13:18.532Z,71.9
2018-10-16T09:14:18.566Z,72.4
2018-10-16T09:15:18.538Z,72
2018-10-16T09:16:18.459Z,72.1
2018-10-16T09:17:18.364Z,71.7
2018-10-16T09:18:18.303Z,71.3
2018-10-16T09:19:18.692Z,70.9
2018-10-16T09:20:18.599Z,71.7
2018-10-16T09:21:18.525Z,72.4
2018-10-16T09:22:18.435Z,71.3
2018-10-16T09:23:18.342Z,71.2
2018-10-16T09:24:18.251Z,70.7
2018-10-16T09:25:18.176Z,71.2
2018-10-16T09:26:18.145Z,71.4
2018-10-16T09:27:18.108Z,71.1
2018-10-16T09:28:18.026Z,71.4
2018-10-16T09:29:18.414Z,70.7
2018-10-16T09:30:18.319Z,71.2
2018-10-16T09:31:18.221Z,70.6
2018-10-16T09:32:18.125Z,70.3
2018-10-16T09:33:18.040Z,68.8
2018-10-16T09:41:16.571Z,68.9
2018-10-16T09:48:14.977Z,68.4
2018-10-16T09:49:15.336Z,68
2018-10-16T09:50:15.268Z,67.4
2018-10-16T09:51:15.220Z,68
2018-10-16T09:52:15.144Z,67.3
2018-10-16T09:53:15.069Z,67.8
2018-10-16T09:54:15.028Z,67.4
2018-10-16T09:55:14.935Z,66.8
2018-10-16T09:56:14.891Z,66.9
2018-10-16T09:57:14.810Z,67.9
2018-10-16T09:58:14.728Z,70
2018-10-16T09:59:15.105Z,68.5
2018-10-16T10:00:15.004Z,68.8
2018-10-16T10:01:14.926Z,68.3
2018-10-16T10:02:14.888Z,68.5
2018-10-16T10:03:14.823Z,67.5
2018-10-16T10:04:14.757Z,67.8
2018-10-16T10:05:14.682Z,65.8
2018-10-16T10:06:14.635Z,65.8
2018-10-16T10:07:14.555Z,66.6
2018-10-16T10:08:14.458Z,66.5
2018-10-16T10:09:14.817Z,66.9
2018-10-16T10:10:14.746Z,67.1
2018-10-16T10:11:14.688Z,66.5
2018-10-16T10:12:14.637Z,66
2018-10-16T10:13:14.553Z,67.2
2018-10-16T10:14:14.489Z,66
2018-10-16T10:15:14.415Z,65.4
2018-10-16T10:16:14.328Z,65.1
2018-10-16T10:17:14.267Z,65.1
2018-10-16T10:18:14.191Z,64.9
2018-10-16T10:19:14.569Z,65.5
2018-10-16T10:20:14.484Z,64
2018-10-16T10:21:14.391Z,64.3
2018-10-16T10:22:14.319Z,64.4
2018-10-16T10:23:14.565Z,63.4
2018-10-16T10:24:14.654Z,63.3
2018-10-16T10:25:14.936Z,63.1
2018-10-16T10:26:15.028Z,63.4
2018-10-16T10:27:14.968Z,64.4
2018-10-16T10:28:14.891Z,63.7
2018-10-16T10:29:15.502Z,62.7
2018-10-16T10:30:15.424Z,62.8
2018-10-16T10:31:15.320Z,63.9
2018-10-16T10:32:15.230Z,63.4
2018-10-16T10:33:15.175Z,62.4
2018-10-16T10:34:15.305Z,61.6
2018-10-16T10:35:15.503Z,63.1
2018-10-16T10:36:15.470Z,63.3
2018-10-16T10:37:15.391Z,62.7
2018-10-16T10:38:15.331Z,63.1
2018-10-16T10:39:15.723Z,64
2018-10-16T10:40:15.642Z,65.6
2018-10-16T10:41:15.557Z,65.6
2018-10-16T10:42:15.839Z,65.3
2018-10-16T10:43:16.007Z,64.3
2018-10-16T10:44:15.937Z,64.6
2018-10-16T10:45:15.855Z,64.7
2018-10-16T10:46:15.776Z,65.4
2018-10-16T10:47:15.705Z,66
2018-10-16T10:48:15.634Z,66.2
2018-10-16T10:49:16.049Z,64.8
2018-10-16T10:50:16.463Z,64.5
2018-10-16T10:51:18.595Z,64.7
2018-10-16T10:52:19.987Z,64.6
2018-10-16T10:53:19.897Z,64.3
2018-10-16T10:54:19.828Z,64
2018-10-16T10:55:19.764Z,63.8
2018-10-16T10:56:19.694Z,63.7
2018-10-16T10:57:19.949Z,63.3
2018-10-16T10:58:19.863Z,63.3
2018-10-16T10:59:20.297Z,63.4
2018-10-16T11:00:20.210Z,63.5
2018-10-16T11:01:20.121Z,63.9
2018-10-16T11:02:20.055Z,63.4
2018-10-16T11:03:20.790Z,63.5
2018-10-16T11:04:21.169Z,63.8
2018-10-16T11:05:21.116Z,63.9
2018-10-16T11:06:21.038Z,63.8
2018-10-16T11:07:20.938Z,64.1
2018-10-16T11:08:20.854Z,65
2018-10-16T11:09:21.307Z,65.9
2018-10-16T11:10:21.250Z,66.6
2018-10-16T11:11:21.159Z,66.2
2018-10-16T11:12:21.098Z,63.3
2018-10-16T11:13:21.030Z,63
2018-10-16T11:14:20.942Z,63.1
2018-10-16T11:15:20.884Z,62.8
2018-10-16T11:16:20.866Z,63.5
2018-10-16T11:17:20.780Z,63.8
2018-10-16T11:18:20.696Z,64.4
2018-10-16T11:19:21.505Z,64.8
2018-10-16T11:20:21.736Z,64.5
2018-10-16T11:21:21.679Z,64.4
2018-10-16T11:22:21.586Z,64.3
2018-10-16T11:23:21.497Z,64.5
2018-10-16T11:24:21.407Z,64.7
2018-10-16T11:25:21.320Z,64.6
2018-10-16T11:26:21.280Z,64.7
2018-10-16T11:27:21.193Z,64
2018-10-16T11:28:21.115Z,63.3
2018-10-16T11:29:21.491Z,63.6
2018-10-16T11:30:21.967Z,64.5
2018-10-16T11:31:22.248Z,65.1
2018-10-16T11:32:22.177Z,67.5
2018-10-16T11:33:22.087Z,66.9
2018-10-16T11:34:22.011Z,66.7
2018-10-16T11:35:21.925Z,66.3
2018-10-16T11:36:21.831Z,66.7
2018-10-16T11:37:21.786Z,66.8
2018-10-16T11:38:21.701Z,66.1
2018-10-16T11:39:22.211Z,66.9
2018-10-16T11:40:22.129Z,65.1
2018-10-16T11:41:22.039Z,65.4
2018-10-16T11:42:22.003Z,65.5
2018-10-16T11:43:21.945Z,66
2018-10-16T11:44:21.857Z,66.1
2018-10-16T11:45:21.778Z,65.5
2018-10-16T11:46:21.686Z,65.9
2018-10-16T11:47:21.600Z,66.6
2018-10-16T11:48:21.532Z,68
2018-10-16T11:49:21.896Z,68.1
2018-10-16T11:50:21.892Z,67.9
2018-10-16T11:51:21.811Z,68.5
2018-10-16T11:52:22.304Z,68.5
2018-10-16T11:53:22.654Z,68.6
2018-10-16T11:54:22.568Z,68.3
2018-10-16T11:55:22.496Z,68.1
2018-10-16T11:56:22.438Z,68.3
2018-10-16T11:57:22.356Z,68
2018-10-16T11:58:22.293Z,68.7
2018-10-16T11:59:23.276Z,69
2018-10-16T12:00:23.421Z,68.8
2018-10-16T12:01:23.340Z,68.5
2018-10-16T12:02:23.506Z,68.5
2018-10-16T12:03:23.540Z,69.2
2018-10-16T12:04:23.465Z,68.2
2018-10-16T12:05:23.415Z,68.1
2018-10-16T12:06:23.333Z,67.9
2018-10-16T12:07:23.259Z,68.7
2018-10-16T12:08:23.171Z,67.9
2018-10-16T12:09:23.549Z,67.6
2018-10-16T12:24:19.772Z,66.2
2018-10-16T12:25:19.710Z,66.5
2018-10-16T12:26:19.636Z,66.3
2018-10-16T12:27:19.565Z,66
2018-10-16T12:28:19.490Z,66.5
2018-10-16T12:29:19.403Z,66
2018-10-16T12:30:19.347Z,66.7
2018-10-16T12:31:19.283Z,66.7
2018-10-16T12:32:19.728Z,66.6
2018-10-16T12:33:19.941Z,66.8
2018-10-16T12:34:20.327Z,67.3
2018-10-16T12:35:20.287Z,67.9
2018-10-16T12:36:20.258Z,67.3
2018-10-16T12:37:20.174Z,66.5
2018-10-16T12:38:20.229Z,66.8
2018-10-16T12:39:20.280Z,67.4
2018-10-16T12:40:20.547Z,68.1
2018-10-16T12:41:20.511Z,68.4
2018-10-16T12:42:20.443Z,68.3
2018-10-16T12:43:20.865Z,68.7
2018-10-16T12:44:22.297Z,68.6
2018-10-16T12:45:22.232Z,68.1
2018-10-16T12:46:22.170Z,67.8
2018-10-16T12:54:21.374Z,66
2018-10-16T12:55:21.289Z,66.5
2018-10-16T12:56:21.206Z,66
2018-10-16T12:57:21.710Z,66.3
2018-10-16T12:58:22.125Z,66.6
2018-10-16T12:59:22.064Z,66.9
2018-10-16T13:00:21.982Z,66.7
2018-10-16T13:01:21.899Z,67.3
2018-10-16T13:02:22.836Z,67.1
2018-10-16T13:03:22.827Z,65.8
2018-10-16T13:04:26.346Z,65.6
2018-10-16T13:05:26.264Z,64.9
2018-10-16T13:06:26.177Z,65
2018-10-16T13:07:26.102Z,65
2018-10-16T13:08:26.013Z,65.3
2018-10-16T13:09:25.942Z,65.6
2018-10-16T13:10:25.860Z,66.1
2018-10-16T13:11:25.780Z,66.1
2018-10-16T13:12:25.732Z,65.5
2018-10-16T13:13:25.679Z,65.7
2018-10-16T13:14:26.177Z,65.5
2018-10-16T13:15:26.089Z,64.7
2018-10-16T13:24:25.762Z,62.7
2018-10-16T13:25:25.672Z,63.6
2018-10-16T13:26:25.593Z,63.6
2018-10-16T13:27:25.511Z,63.8
2018-10-16T13:28:25.433Z,64.2
2018-10-16T13:29:26.862Z,64.4
2018-10-16T13:30:27.633Z,64.3
2018-10-16T13:31:27.561Z,63.9
2018-10-16T13:32:27.512Z,62.5
2018-10-16T13:33:27.431Z,62.3
2018-10-16T13:34:28.195Z,63
2018-10-16T13:35:28.104Z,63.7
2018-10-16T13:36:28.057Z,64
2018-10-16T13:37:27.965Z,63.7
2018-10-16T13:38:27.868Z,63.3
2018-10-16T13:39:27.808Z,63.9
2018-10-16T13:40:27.730Z,63.8
2018-10-16T13:41:27.638Z,63.4
2018-10-16T13:42:28.158Z,63
2018-10-16T13:43:28.347Z,62.7
2018-10-16T13:44:29.050Z,63.3
2018-10-16T13:45:28.972Z,63.7
2018-10-16T13:46:28.890Z,64
2018-10-16T13:47:28.816Z,63
2018-10-16T13:48:28.737Z,62.7
2018-10-16T13:49:28.687Z,62.7
2018-10-16T13:50:28.596Z,62.6
2018-10-16T13:51:28.525Z,62.1
2018-10-16T13:52:28.431Z,61.8
2018-10-16T13:53:28.340Z,62.4
2018-10-16T13:54:28.733Z,62.5
2018-10-16T13:55:28.672Z,62.6
2018-10-16T13:56:28.593Z,62.8
2018-10-16T13:57:28.532Z,62.9
2018-10-16T13:58:28.478Z,63
2018-10-16T13:59:28.413Z,62.8
2018-10-16T14:00:28.366Z,62.2
2018-10-16T14:01:28.280Z,62.1
2018-10-16T14:02:28.197Z,62.6
2018-10-16T14:03:28.139Z,62.8
2018-10-16T14:04:28.746Z,62.5
2018-10-16T14:05:28.667Z,62.4
2018-10-16T14:06:28.589Z,61.8
2018-10-16T14:07:28.490Z,61.9
2018-10-16T14:08:28.407Z,61.9
2018-10-16T14:09:28.327Z,62.2
2018-10-16T14:10:28.238Z,62.6
2018-10-16T14:11:28.212Z,63.3
2018-10-16T14:12:28.125Z,63.7
2018-10-16T14:13:28.039Z,63.9
2018-10-16T14:14:28.546Z,64.3
2018-10-16T14:15:28.483Z,64.2
2018-10-16T14:16:28.436Z,64.5
2018-10-16T14:17:28.362Z,64.6
2018-10-16T14:18:28.281Z,64.7
2018-10-16T14:19:28.198Z,65
2018-10-16T14:20:28.101Z,65.1
2018-10-16T14:21:28.013Z,65.2
2018-10-16T14:22:27.945Z,65.3
2018-10-16T14:23:27.871Z,65.4
2018-10-16T14:24:28.280Z,65.1
2018-10-16T14:25:28.203Z,65.2
2018-10-16T14:26:28.479Z,65.4
2018-10-16T14:27:28.624Z,65.7
2018-10-16T14:28:28.542Z,65.9
2018-10-16T14:29:28.454Z,66.1
2018-10-16T14:30:28.365Z,66.1
2018-10-16T14:31:28.286Z,65.7
2018-10-16T14:32:28.224Z,65.3
2018-10-16T14:33:28.167Z,65.1
2018-10-16T14:34:30.555Z,65.2
2018-10-16T14:35:31.103Z,64.5
2018-10-16T14:36:31.033Z,64.6
2018-10-16T14:37:31.074Z,64.7
2018-10-16T14:38:30.983Z,64.1
2018-10-16T14:39:30.914Z,64.1
2018-10-16T14:40:31.087Z,63.9
2018-10-16T14:41:31.334Z,63.5
2018-10-16T14:42:31.234Z,63.7
2018-10-16T14:43:31.169Z,64.2
2018-10-16T14:44:31.915Z,64
2018-10-16T14:45:31.865Z,64
2018-10-16T15:14:27.432Z,62.6
2018-10-16T15:15:27.333Z,63.2
2018-10-16T15:16:27.423Z,63.4
2018-10-16T15:17:27.527Z,63.5
2018-10-16T15:18:27.444Z,63.7
2018-10-16T15:19:27.363Z,64.1
2018-10-16T15:20:27.273Z,64.2
2018-10-16T15:21:27.218Z,64.5
2018-10-16T15:22:27.143Z,64.7
2018-10-16T15:23:27.279Z,64.7
2018-10-16T15:24:28.162Z,64.8
2018-10-16T15:25:28.067Z,64.9
2018-10-16T15:34:26.706Z,64
2018-10-16T15:35:26.617Z,64.7
2018-10-16T15:36:26.537Z,64.8
2018-10-16T15:37:26.473Z,64.7
2018-10-16T15:38:26.377Z,65
2018-10-16T15:39:26.305Z,65.2
2018-10-16T15:40:26.217Z,65
2018-10-16T15:41:26.140Z,65.2
2018-10-16T15:42:26.075Z,65.4
2018-10-16T15:43:26.001Z,65.5
2018-10-16T15:44:26.971Z,65.7
2018-10-16T15:45:26.936Z,67.2
2018-10-16T15:46:26.851Z,68.2
2018-10-16T15:47:26.800Z,67.6
2018-10-16T15:48:26.724Z,68.3
2018-10-16T15:49:26.650Z,68.6
2018-10-16T15:50:26.577Z,69.4
2018-10-16T15:51:26.478Z,69.1
2018-10-16T15:52:26.662Z,69.1
2018-10-16T15:53:27.075Z,69.3
2018-10-16T15:54:27.921Z,68.8
2018-10-16T15:55:27.846Z,70
2018-10-16T15:56:27.769Z,70.1
2018-10-16T15:57:27.719Z,70.6
2018-10-16T15:58:27.708Z,70.4
2018-10-16T15:59:27.615Z,70.6
2018-10-16T16:00:27.540Z,70.2
2018-10-16T16:01:27.468Z,71.5
2018-10-16T16:02:27.794Z,70.5
2018-10-16T16:03:28.021Z,71.5
2018-10-16T16:04:28.686Z,71.9
2018-10-16T16:05:28.621Z,70.8
2018-10-16T16:14:27.515Z,71.5
2018-10-16T16:15:27.453Z,72.2
2018-10-16T16:16:27.369Z,72.4
2018-10-16T16:17:27.315Z,73.4
2018-10-16T16:18:27.761Z,72.3
2018-10-16T16:19:27.989Z,72.7
2018-10-16T16:20:27.902Z,72.9
2018-10-16T16:21:27.823Z,72.9
2018-10-16T16:22:27.744Z,72.9
2018-10-16T16:23:27.648Z,72.8
2018-10-16T16:24:28.515Z,73.9
2018-10-16T16:25:29.104Z,74.1
2018-10-16T16:26:29.597Z,74